Ware, Illinois
Current Conditions -  °F | °C
As of 9:17 PM on Thursday 18 Dec 2014 (Local Time) from KCGI Reporting Station
Overcast Overcast  
Wind Chill: 32°   Ceiling: 2200
Heat Index: 36°   Visibility: 9mi
Dew Point: 33°   Wind: 5mph
Humidity: 89%   Direction: 30°NNE
Pressure: 30.28"   Gusts: NA
Location:  37.4256°N, 89.3457°W
Report Text: KCGI 190317Z AUTO 03004KT 9SM FEW011 BKN022 OVC048 02/01 A3028 RMK AO2 T00220006 TSNO
Loading
Personal Weather Stations






























Interactive Weather Map New forecast layout! Learn more

10-Day Weather Forecast

Advertisements
Track Severe Weather on mobile